Time;durP1;ratioP1;P1;durP2;ratioP2;P2;SDS_P1;SDS_P2;PMS_P1;PMS_P2;Temp;Humidity;BMP_temperature;BMP_pressure;BME280_temperature;BME280_humidity;BME280_pressure;Samples;Min_cycle;Max_cycle;Signal;HPM_P1;HPM_P2
2022/11/21 00:02:20;;;;;;;2.03;0.90;;;;;;;;;;5031175;28;20937;-71
2022/11/21 00:04:45;;;;;;;0.90;0.70;;;;;;;;;;5031388;28;20364;-71
2022/11/21 00:07:10;;;;;;;1.30;0.80;;;;;;;;;;5032712;28;20762;-71
2022/11/21 00:09:36;;;;;;;2.23;0.70;;;;;;;;;;5034735;28;20287;-72
2022/11/21 00:12:01;;;;;;;0.60;0.60;;;;;;;;;;5013494;28;20370;-73
2022/11/21 00:14:26;;;;;;;2.07;0.70;;;;;;;;;;5030073;28;20291;-73
2022/11/21 00:16:51;;;;;;;0.50;0.50;;;;;;;;;;5029961;28;20303;-71
2022/11/21 00:19:17;;;;;;;1.05;0.65;;;;;;;;;;5027514;28;20363;-72
2022/11/21 00:21:42;;;;;;;1.27;0.60;;;;;;;;;;5029752;28;20121;-71
2022/11/21 00:24:08;;;;;;;0.63;0.50;;;;;;;;;;5029804;28;20018;-72
2022/11/21 00:26:35;;;;;;;1.55;0.88;;;;;;;;;;5013251;28;20651;-70
2022/11/21 00:29:01;;;;;;;1.10;0.50;;;;;;;;;;5029985;28;20028;-71
2022/11/21 00:31:26;;;;;;;1.60;0.60;;;;;;;;;;5029997;28;20112;-69
2022/11/21 00:33:51;;;;;;;1.70;0.57;;;;;;;;;;5031231;28;20324;-69
2022/11/21 00:36:16;;;;;;;0.70;0.70;;;;;;;;;;5031881;28;20041;-73
2022/11/21 00:38:42;;;;;;;1.88;0.60;;;;;;;;;;5030145;28;20022;-75
2022/11/21 00:41:07;;;;;;;2.27;1.10;;;;;;;;;;5034933;28;20055;-73
2022/11/21 00:43:32;;;;;;;1.60;0.60;;;;;;;;;;5028967;28;20290;-74
2022/11/21 00:46:00;;;;;;;0.93;0.50;;;;;;;;;;5030516;28;20053;-75
2022/11/21 00:48:25;;;;;;;0.40;0.40;;;;;;;;;;5024455;28;20021;-73
2022/11/21 00:50:50;;;;;;;0.85;0.57;;;;;;;;;;5031641;28;20035;-77
2022/11/21 00:53:15;;;;;;;1.05;0.70;;;;;;;;;;5012821;28;20500;-72
2022/11/21 00:55:41;;;;;;;0.50;0.50;;;;;;;;;;5012033;28;20052;-72
2022/11/21 00:58:06;;;;;;;1.27;0.50;;;;;;;;;;5030163;28;20363;-72
2022/11/21 01:00:31;;;;;;;0.57;0.53;;;;;;;;;;5031049;28;20033;-72
2022/11/21 01:02:56;;;;;;;0.40;0.40;;;;;;;;;;5030875;28;20281;-72
2022/11/21 01:05:21;;;;;;;0.57;0.50;;;;;;;;;;5031669;28;20277;-71
2022/11/21 01:07:48;;;;;;;0.77;0.50;;;;;;;;;;5028915;28;20272;-72
2022/11/21 01:10:13;;;;;;;1.95;0.82;;;;;;;;;;5031698;28;20761;-78
2022/11/21 01:12:38;;;;;;;0.80;0.70;;;;;;;;;;5011834;28;20048;-75
2022/11/21 01:15:04;;;;;;;3.00;0.82;;;;;;;;;;5037262;28;20103;-79
2022/11/21 01:17:30;;;;;;;1.52;0.50;;;;;;;;;;5029283;28;20124;-75
2022/11/21 01:19:56;;;;;;;2.15;0.52;;;;;;;;;;5031259;28;20025;-75
2022/11/21 01:22:21;;;;;;;4.97;0.83;;;;;;;;;;5031015;28;20460;-74
2022/11/21 01:24:47;;;;;;;0.93;0.65;;;;;;;;;;5012181;28;20848;-75
2022/11/21 01:27:12;;;;;;;0.60;0.53;;;;;;;;;;5010504;28;20101;-73
2022/11/21 01:29:37;;;;;;;1.00;0.70;;;;;;;;;;5026593;28;20823;-70
2022/11/21 01:32:02;;;;;;;0.63;0.60;;;;;;;;;;5031009;28;20758;-69
2022/11/21 01:34:28;;;;;;;1.88;0.70;;;;;;;;;;5012195;28;20438;-68
2022/11/21 01:36:53;;;;;;;0.77;0.65;;;;;;;;;;5024409;28;20048;-69
2022/11/21 01:39:18;;;;;;;2.15;0.88;;;;;;;;;;5027614;28;20025;-68
2022/11/21 01:41:44;;;;;;;1.00;0.67;;;;;;;;;;5031680;28;20225;-69
2022/11/21 01:44:13;;;;;;;2.47;0.90;;;;;;;;;;5030198;28;20371;-70
2022/11/21 01:46:39;;;;;;;1.17;0.80;;;;;;;;;;5014594;28;20112;-69
2022/11/21 01:49:12;;;;;;;2.15;0.80;;;;;;;;;;5006898;28;20121;-76
2022/11/21 01:51:53;;;;;;;2.47;0.80;;;;;;;;;;5030866;28;20365;-75
2022/11/21 01:54:36;;;;;;;2.13;0.60;;;;;;;;;;5029489;28;20072;-74
2022/11/21 01:57:10;;;;;;;2.15;0.80;;;;;;;;;;5020765;28;20025;-74
2022/11/21 01:59:43;;;;;;;1.00;0.63;;;;;;;;;;5007347;28;20517;-74
2022/11/21 02:02:09;;;;;;;1.55;0.75;;;;;;;;;;5031218;28;20029;-75
2022/11/21 02:04:35;;;;;;;1.48;0.80;;;;;;;;;;5030008;28;20037;-74
2022/11/21 02:07:01;;;;;;;2.08;1.17;;;;;;;;;;5032194;28;20036;-74
2022/11/21 02:09:27;;;;;;;2.65;1.10;;;;;;;;;;5033113;28;20041;-73
2022/11/21 02:12:14;;;;;;;6.20;0.80;;;;;;;;;;5016533;28;20380;-74
2022/11/21 02:14:41;;;;;;;2.50;0.70;;;;;;;;;;5029179;28;20037;-74
2022/11/21 02:17:07;;;;;;;2.35;1.15;;;;;;;;;;5033687;28;20026;-73
2022/11/21 02:19:42;;;;;;;2.15;1.05;;;;;;;;;;5028079;28;20040;-74
2022/11/21 02:22:15;;;;;;;1.25;0.77;;;;;;;;;;5032631;28;20033;-69
2022/11/21 02:24:55;;;;;;;2.47;0.80;;;;;;;;;;5015547;28;20072;-69
2022/11/21 02:27:20;;;;;;;3.38;0.88;;;;;;;;;;5033434;28;20435;-71
2022/11/21 02:29:45;;;;;;;3.20;0.93;;;;;;;;;;5033135;28;20029;-73
2022/11/21 02:32:19;;;;;;;0.70;0.70;;;;;;;;;;5024421;28;20280;-73
2022/11/21 02:34:44;;;;;;;1.25;0.75;;;;;;;;;;5033031;28;20031;-72
2022/11/21 02:37:10;;;;;;;1.37;0.80;;;;;;;;;;5012227;28;20472;-72
2022/11/21 02:39:35;;;;;;;1.83;0.70;;;;;;;;;;5015259;28;20276;-72
2022/11/21 02:42:04;;;;;;;3.17;1.23;;;;;;;;;;5033757;28;20268;-72
2022/11/21 02:44:41;;;;;;;1.05;0.60;;;;;;;;;;5030602;28;20112;-75
2022/11/21 02:47:06;;;;;;;1.00;0.70;;;;;;;;;;5013937;28;20033;-75
2022/11/21 02:49:48;;;;;;;0.93;0.60;;;;;;;;;;5039016;28;20063;-74
2022/11/21 02:52:13;;;;;;;1.70;0.77;;;;;;;;;;5034141;28;20037;-75
2022/11/21 02:54:38;;;;;;;2.07;0.80;;;;;;;;;;5032491;28;20025;-75
2022/11/21 02:57:03;;;;;;;0.63;0.60;;;;;;;;;;5031449;28;20293;-76
2022/11/21 02:59:28;;;;;;;1.50;0.70;;;;;;;;;;5033937;28;20352;-69
2022/11/21 03:01:56;;;;;;;0.83;0.63;;;;;;;;;;5032672;28;20325;-71
2022/11/21 03:04:21;;;;;;;1.02;0.63;;;;;;;;;;5028235;28;20292;-74
2022/11/21 03:06:46;;;;;;;2.23;0.87;;;;;;;;;;5030405;28;20507;-70
2022/11/21 03:09:12;;;;;;;0.70;0.70;;;;;;;;;;5029311;28;20307;-72
2022/11/21 03:11:37;;;;;;;0.63;0.60;;;;;;;;;;5030096;28;20366;-70
2022/11/21 03:14:02;;;;;;;1.63;0.60;;;;;;;;;;5029500;28;20334;-71
2022/11/21 03:16:27;;;;;;;0.60;0.60;;;;;;;;;;5028587;28;20375;-71
2022/11/21 03:18:52;;;;;;;1.80;0.67;;;;;;;;;;5022231;28;20282;-71
2022/11/21 03:21:18;;;;;;;0.80;0.60;;;;;;;;;;5033161;28;20354;-70
2022/11/21 03:23:43;;;;;;;0.85;0.50;;;;;;;;;;5030175;28;20029;-70
2022/11/21 03:26:08;;;;;;;1.77;0.80;;;;;;;;;;5032723;28;20029;-70
2022/11/21 03:28:33;;;;;;;0.60;0.60;;;;;;;;;;5014925;28;20624;-70
2022/11/21 03:30:59;;;;;;;1.00;0.60;;;;;;;;;;5031728;28;20833;-69
2022/11/21 03:33:24;;;;;;;1.13;0.70;;;;;;;;;;5018030;28;20412;-70
2022/11/21 03:35:49;;;;;;;1.67;0.50;;;;;;;;;;5031318;28;20318;-75
2022/11/21 03:38:14;;;;;;;0.60;0.60;;;;;;;;;;5010867;28;20044;-71
2022/11/21 03:40:39;;;;;;;1.95;0.68;;;;;;;;;;5032958;28;20776;-68
2022/11/21 03:43:05;;;;;;;0.70;0.60;;;;;;;;;;5020634;28;20057;-68
2022/11/21 03:45:30;;;;;;;0.88;0.63;;;;;;;;;;5032168;28;20312;-69
2022/11/21 03:47:55;;;;;;;0.63;0.60;;;;;;;;;;5013556;28;20021;-69
2022/11/21 03:50:20;;;;;;;0.53;0.50;;;;;;;;;;5032919;28;20041;-69
2022/11/21 03:52:46;;;;;;;0.65;0.50;;;;;;;;;;5035418;28;20256;-70
2022/11/21 03:55:11;;;;;;;1.30;0.60;;;;;;;;;;5035916;28;20376;-73
2022/11/21 03:57:37;;;;;;;0.50;0.50;;;;;;;;;;5013993;28;20358;-74
2022/11/21 04:00:03;;;;;;;0.50;0.50;;;;;;;;;;5029338;28;20287;-76
2022/11/21 04:02:28;;;;;;;0.60;0.40;;;;;;;;;;5029900;28;20021;-74
2022/11/21 04:04:53;;;;;;;0.80;0.60;;;;;;;;;;5013943;28;20083;-74
2022/11/21 04:07:18;;;;;;;0.63;0.63;;;;;;;;;;5031795;28;20762;-74
2022/11/21 04:09:43;;;;;;;0.40;0.40;;;;;;;;;;5031275;28;20292;-74
2022/11/21 04:12:09;;;;;;;0.50;0.50;;;;;;;;;;5014037;28;20275;-75
2022/11/21 04:14:34;;;;;;;0.50;0.50;;;;;;;;;;5029729;28;20499;-69
2022/11/21 04:16:59;;;;;;;0.80;0.50;;;;;;;;;;5029923;28;20025;-70
2022/11/21 04:19:24;;;;;;;0.68;0.60;;;;;;;;;;5012449;28;20268;-69
2022/11/21 04:21:50;;;;;;;2.95;0.70;;;;;;;;;;5031442;28;20028;-69
2022/11/21 04:24:15;;;;;;;1.40;0.50;;;;;;;;;;5031550;28;20025;-69
2022/11/21 04:26:40;;;;;;;1.75;0.60;;;;;;;;;;5039045;28;20025;-69
2022/11/21 04:29:05;;;;;;;1.67;0.50;;;;;;;;;;5031591;28;20036;-70
2022/11/21 04:31:31;;;;;;;0.57;0.50;;;;;;;;;;5028836;28;20280;-73
2022/11/21 04:33:56;;;;;;;0.80;0.60;;;;;;;;;;5013622;28;20040;-75
2022/11/21 04:36:21;;;;;;;0.67;0.67;;;;;;;;;;5013872;28;20295;-76
2022/11/21 04:38:46;;;;;;;1.13;0.60;;;;;;;;;;5029849;28;20276;-78
2022/11/21 04:41:11;;;;;;;0.97;0.50;;;;;;;;;;5030974;28;20280;-76
2022/11/21 04:43:37;;;;;;;0.63;0.55;;;;;;;;;;5028711;28;20277;-75
2022/11/21 04:46:02;;;;;;;0.63;0.50;;;;;;;;;;5025580;28;20452;-75
2022/11/21 04:48:27;;;;;;;1.50;0.83;;;;;;;;;;5031834;28;20786;-76
2022/11/21 04:50:52;;;;;;;1.23;0.80;;;;;;;;;;5030213;28;20742;-74
2022/11/21 04:53:18;;;;;;;2.55;0.65;;;;;;;;;;5028737;28;20370;-72
2022/11/21 04:55:43;;;;;;;1.30;0.70;;;;;;;;;;5030046;28;20120;-72
2022/11/21 04:58:08;;;;;;;1.20;0.70;;;;;;;;;;5038326;28;20314;-72
2022/11/21 05:00:33;;;;;;;1.93;0.53;;;;;;;;;;5005436;28;20623;-72
2022/11/21 05:03:02;;;;;;;7.22;1.75;;;;;;;;;;5030381;28;20959;-71
2022/11/21 05:05:27;;;;;;;0.63;0.63;;;;;;;;;;5031989;28;20025;-71
2022/11/21 05:07:53;;;;;;;1.50;1.00;;;;;;;;;;5031915;28;20113;-74
2022/11/21 05:10:18;;;;;;;1.00;0.60;;;;;;;;;;5028268;28;20311;-71
2022/11/21 05:15:27;;;;;;;1.25;0.90;;;;;;;;;;5029321;28;20292;-71
2022/11/21 05:17:52;;;;;;;3.13;0.97;;;;;;;;;;5031316;28;20441;-73
2022/11/21 05:20:17;;;;;;;2.27;0.70;;;;;;;;;;5027811;28;21056;-72
2022/11/21 05:22:44;;;;;;;2.70;0.80;;;;;;;;;;5030464;28;20887;-71
2022/11/21 05:25:09;;;;;;;1.50;0.68;;;;;;;;;;5028620;28;20033;-75
2022/11/21 05:27:35;;;;;;;4.00;1.17;;;;;;;;;;5027492;28;20487;-70
2022/11/21 05:30:00;;;;;;;1.13;0.70;;;;;;;;;;5021107;28;20547;-72
2022/11/21 05:32:25;;;;;;;2.30;0.82;;;;;;;;;;5015880;28;20806;-72
2022/11/21 05:34:50;;;;;;;1.95;0.68;;;;;;;;;;5012577;28;20025;-71
2022/11/21 05:37:16;;;;;;;1.10;0.80;;;;;;;;;;5012917;28;20029;-71
2022/11/21 05:39:41;;;;;;;3.35;1.15;;;;;;;;;;5030964;28;20603;-71
2022/11/21 05:42:06;;;;;;;0.63;0.63;;;;;;;;;;5031563;28;20464;-73
2022/11/21 05:44:31;;;;;;;2.17;0.80;;;;;;;;;;5032761;28;20627;-70
2022/11/21 05:46:57;;;;;;;1.57;0.83;;;;;;;;;;5033854;28;20798;-71
2022/11/21 05:49:22;;;;;;;3.00;1.60;;;;;;;;;;5033876;28;20683;-71
2022/11/21 05:51:47;;;;;;;2.33;0.77;;;;;;;;;;5032061;28;20024;-71
2022/11/21 05:54:16;;;;;;;1.90;0.90;;;;;;;;;;5016369;28;20359;-72
2022/11/21 05:56:41;;;;;;;1.55;0.93;;;;;;;;;;5013078;28;20291;-71
2022/11/21 05:59:07;;;;;;;1.63;0.70;;;;;;;;;;5035347;28;20035;-69
2022/11/21 06:04:16;;;;;;;2.28;0.90;;;;;;;;;;5030506;28;20112;-70
2022/11/21 06:06:41;;;;;;;1.10;0.80;;;;;;;;;;5016201;28;20144;-75
2022/11/21 06:09:06;;;;;;;0.97;0.70;;;;;;;;;;5034591;28;20834;-75
2022/11/21 06:11:31;;;;;;;1.70;1.17;;;;;;;;;;5031446;28;20700;-76
2022/11/21 06:13:56;;;;;;;3.20;1.15;;;;;;;;;;5013358;28;20687;-75
2022/11/21 06:16:22;;;;;;;4.32;1.25;;;;;;;;;;5034088;28;20030;-75
2022/11/21 06:18:48;;;;;;;1.67;0.70;;;;;;;;;;5014223;28;20025;-75
2022/11/21 06:21:13;;;;;;;4.20;1.77;;;;;;;;;;5030323;28;20031;-70
2022/11/21 06:23:38;;;;;;;7.37;2.30;;;;;;;;;;5033691;28;20033;-75
2022/11/21 06:26:05;;;;;;;2.78;1.00;;;;;;;;;;5012867;28;20025;-75
2022/11/21 06:28:32;;;;;;;6.35;1.50;;;;;;;;;;5033317;28;20167;-75
2022/11/21 06:31:01;;;;;;;6.28;1.05;;;;;;;;;;5027152;28;20025;-75
2022/11/21 06:33:26;;;;;;;1.33;1.10;;;;;;;;;;5036873;28;20022;-74
2022/11/21 06:35:51;;;;;;;5.07;1.40;;;;;;;;;;5030553;28;20032;-75
2022/11/21 06:38:18;;;;;;;2.30;1.30;;;;;;;;;;5006827;28;20284;-77
2022/11/21 06:40:43;;;;;;;4.18;1.25;;;;;;;;;;5007144;28;20632;-79
2022/11/21 06:43:09;;;;;;;4.73;2.13;;;;;;;;;;5027801;28;20040;-68
2022/11/21 06:45:34;;;;;;;5.33;1.30;;;;;;;;;;5028752;28;20256;-68
2022/11/21 06:48:02;;;;;;;4.37;1.30;;;;;;;;;;5032694;28;20272;-68
2022/11/21 06:50:29;;;;;;;2.28;1.27;;;;;;;;;;5015085;28;20287;-68
2022/11/21 06:52:56;;;;;;;4.82;1.33;;;;;;;;;;5015144;28;20039;-67
2022/11/21 06:55:22;;;;;;;2.92;1.75;;;;;;;;;;5032330;28;20034;-69
2022/11/21 06:57:47;;;;;;;5.40;1.25;;;;;;;;;;5024279;28;20042;-74
2022/11/21 07:00:13;;;;;;;2.67;1.17;;;;;;;;;;5028835;28;20420;-73
2022/11/21 07:02:38;;;;;;;6.85;1.35;;;;;;;;;;5022235;28;20041;-70
2022/11/21 07:05:03;;;;;;;3.28;1.38;;;;;;;;;;5035186;28;20096;-69
2022/11/21 07:07:29;;;;;;;3.22;1.30;;;;;;;;;;5037902;28;20024;-68
2022/11/21 07:09:54;;;;;;;2.83;1.65;;;;;;;;;;5015783;28;20030;-69
2022/11/21 07:15:03;;;;;;;3.80;1.38;;;;;;;;;;5029925;28;20069;-70
2022/11/21 07:17:29;;;;;;;1.88;1.10;;;;;;;;;;5032638;28;20056;-76
2022/11/21 07:19:54;;;;;;;3.15;1.20;;;;;;;;;;5015699;28;20415;-68
2022/11/21 07:22:19;;;;;;;5.40;1.37;;;;;;;;;;5031236;28;20021;-67
2022/11/21 07:24:44;;;;;;;3.10;1.47;;;;;;;;;;5032302;28;20260;-68
2022/11/21 07:27:09;;;;;;;4.82;1.75;;;;;;;;;;5012860;28;20975;-68
2022/11/21 07:29:35;;;;;;;6.30;1.48;;;;;;;;;;5032601;28;20030;-67
2022/11/21 07:32:00;;;;;;;2.87;1.10;;;;;;;;;;5012681;28;20030;-69
2022/11/21 07:34:25;;;;;;;7.22;1.27;;;;;;;;;;5030310;28;20268;-68
2022/11/21 07:36:51;;;;;;;1.10;0.93;;;;;;;;;;5034285;28;20032;-77
2022/11/21 07:39:16;;;;;;;2.77;1.20;;;;;;;;;;5039403;28;20029;-70
2022/11/21 07:41:41;;;;;;;7.93;1.87;;;;;;;;;;5015431;28;20686;-70
2022/11/21 07:44:06;;;;;;;1.83;1.17;;;;;;;;;;5032131;28;20810;-71
2022/11/21 07:46:33;;;;;;;3.33;1.80;;;;;;;;;;5031846;28;20308;-70
2022/11/21 07:48:58;;;;;;;2.85;1.80;;;;;;;;;;5033357;28;20084;-69
2022/11/21 07:51:23;;;;;;;5.72;1.77;;;;;;;;;;5032091;28;20025;-69
2022/11/21 07:53:48;;;;;;;2.53;1.30;;;;;;;;;;5033204;28;20033;-69
2022/11/21 07:56:13;;;;;;;4.07;1.85;;;;;;;;;;5031375;28;20296;-70
2022/11/21 07:58:39;;;;;;;4.33;1.30;;;;;;;;;;5031544;28;20027;-69
2022/11/21 08:01:05;;;;;;;2.95;1.73;;;;;;;;;;5032818;28;20296;-69
2022/11/21 08:03:33;;;;;;;3.10;1.33;;;;;;;;;;5032903;28;20029;-68
2022/11/21 08:06:02;;;;;;;2.78;1.73;;;;;;;;;;5030844;28;20075;-69
2022/11/21 08:08:28;;;;;;;2.50;1.27;;;;;;;;;;5026762;28;20041;-68
2022/11/21 08:10:53;;;;;;;2.22;1.30;;;;;;;;;;5040400;28;20030;-68
2022/11/21 08:13:18;;;;;;;2.47;1.50;;;;;;;;;;5032758;28;20483;-70
2022/11/21 08:15:43;;;;;;;4.00;1.50;;;;;;;;;;5031832;28;20773;-71
2022/11/21 08:18:12;;;;;;;4.33;1.40;;;;;;;;;;5032933;28;20719;-72
2022/11/21 08:20:38;;;;;;;2.17;1.10;;;;;;;;;;5031408;28;20280;-72
2022/11/21 08:23:03;;;;;;;3.38;1.50;;;;;;;;;;5032583;28;20068;-72
2022/11/21 08:25:29;;;;;;;2.92;1.65;;;;;;;;;;5014309;28;20337;-72
2022/11/21 08:27:57;;;;;;;2.70;1.30;;;;;;;;;;5014289;28;20017;-71
2022/11/21 08:30:22;;;;;;;5.78;2.53;;;;;;;;;;5014425;28;20057;-69
2022/11/21 08:32:48;;;;;;;5.80;1.75;;;;;;;;;;5014515;28;20052;-72
2022/11/21 08:35:13;;;;;;;2.35;1.80;;;;;;;;;;5013736;28;20034;-71
2022/11/21 08:37:38;;;;;;;6.32;1.83;;;;;;;;;;5013481;28;20028;-72
2022/11/21 08:40:03;;;;;;;4.70;2.10;;;;;;;;;;5022429;28;20068;-72
2022/11/21 08:42:29;;;;;;;4.57;2.10;;;;;;;;;;5038930;28;20280;-72
2022/11/21 08:44:54;;;;;;;5.57;2.60;;;;;;;;;;5014163;28;20029;-72
2022/11/21 08:47:19;;;;;;;4.97;1.90;;;;;;;;;;5031759;28;20554;-72
2022/11/21 08:49:45;;;;;;;4.55;1.88;;;;;;;;;;5031206;28;20036;-71
2022/11/21 08:52:10;;;;;;;3.15;1.90;;;;;;;;;;5032520;28;20021;-69
2022/11/21 08:54:35;;;;;;;7.30;2.33;;;;;;;;;;5031486;28;20036;-71
2022/11/21 08:57:00;;;;;;;5.32;1.50;;;;;;;;;;5031774;28;20296;-70
2022/11/21 08:59:26;;;;;;;4.03;1.47;;;;;;;;;;5032086;28;20160;-71
2022/11/21 09:01:51;;;;;;;3.00;1.77;;;;;;;;;;5031390;28;20268;-72
2022/11/21 09:04:17;;;;;;;6.55;2.63;;;;;;;;;;5031056;28;20278;-70
2022/11/21 09:06:42;;;;;;;8.05;3.60;;;;;;;;;;5014168;28;20460;-69
2022/11/21 09:09:07;;;;;;;5.13;2.40;;;;;;;;;;5007464;28;20014;-75
2022/11/21 09:11:33;;;;;;;10.18;2.97;;;;;;;;;;5031111;28;20268;-70
2022/11/21 09:19:26;;;;;;;4.65;1.60;;;;;;;;;;5023712;28;20026;-71
2022/11/21 09:21:51;;;;;;;4.60;1.92;;;;;;;;;;5034856;28;20086;-70
2022/11/21 09:24:16;;;;;;;7.90;2.10;;;;;;;;;;5035980;28;20032;-70
2022/11/21 09:26:42;;;;;;;6.47;1.95;;;;;;;;;;5035813;28;20076;-79
2022/11/21 09:29:09;;;;;;;5.03;1.50;;;;;;;;;;5017633;28;20044;-75
2022/11/21 09:31:35;;;;;;;5.00;1.52;;;;;;;;;;5016977;28;20108;-75
2022/11/21 09:34:00;;;;;;;6.97;2.22;;;;;;;;;;5035611;28;20121;-76
2022/11/21 09:36:25;;;;;;;11.38;2.92;;;;;;;;;;5017682;28;20096;-75
2022/11/21 09:38:51;;;;;;;11.10;2.47;;;;;;;;;;5007083;28;20477;-76
2022/11/21 09:41:51;;;;;;;15.10;3.22;;;;;;;;;;5015755;28;20272;-75
2022/11/21 09:44:24;;;;;;;13.18;2.83;;;;;;;;;;5034897;28;20068;-70
2022/11/21 09:46:52;;;;;;;29.13;3.28;;;;;;;;;;5024081;28;20084;-71
2022/11/21 09:49:17;;;;;;;9.38;1.55;;;;;;;;;;5028491;28;20021;-70
2022/11/21 09:51:43;;;;;;;4.10;1.48;;;;;;;;;;5016734;28;20040;-70
2022/11/21 09:54:08;;;;;;;4.97;2.78;;;;;;;;;;5034603;28;20025;-70
2022/11/21 09:56:36;;;;;;;7.57;1.97;;;;;;;;;;5035082;28;20029;-70
2022/11/21 09:59:25;;;;;;;9.13;1.80;;;;;;;;;;5033257;28;20017;-71
2022/11/21 10:01:51;;;;;;;8.55;1.90;;;;;;;;;;5031064;28;20376;-70
2022/11/21 10:04:16;;;;;;;6.70;2.08;;;;;;;;;;5017154;28;20033;-70
2022/11/21 10:06:48;;;;;;;7.03;2.07;;;;;;;;;;5035322;28;20030;-70
2022/11/21 10:09:31;;;;;;;3.38;1.70;;;;;;;;;;5034207;28;20279;-70
2022/11/21 10:15:01;;;;;;;4.28;1.67;;;;;;;;;;5033535;28;20025;-71
2022/11/21 10:17:42;;;;;;;8.18;1.42;;;;;;;;;;5021873;28;20087;-71
2022/11/21 10:20:13;;;;;;;9.13;1.75;;;;;;;;;;5019042;28;20487;-70
2022/11/21 10:22:42;;;;;;;4.05;1.20;;;;;;;;;;5016965;28;20108;-70
2022/11/21 10:25:14;;;;;;;8.43;1.58;;;;;;;;;;5033980;28;20061;-77
2022/11/21 10:27:57;;;;;;;6.25;1.33;;;;;;;;;;5015698;28;20439;-79
2022/11/21 10:30:22;;;;;;;3.67;1.33;;;;;;;;;;5028227;28;20025;-77
2022/11/21 10:32:50;;;;;;;3.33;1.65;;;;;;;;;;5016529;28;20079;-77
2022/11/21 10:35:18;;;;;;;5.15;1.40;;;;;;;;;;5034905;28;20095;-78
2022/11/21 10:37:51;;;;;;;5.53;2.10;;;;;;;;;;5033091;28;20029;-78
2022/11/21 10:40:23;;;;;;;4.22;1.35;;;;;;;;;;5007653;28;20132;-71
2022/11/21 10:42:54;;;;;;;9.07;2.00;;;;;;;;;;5033225;28;20029;-70
2022/11/21 10:45:19;;;;;;;9.20;1.67;;;;;;;;;;5020807;28;20025;-69
2022/11/21 10:47:53;;;;;;;8.13;1.63;;;;;;;;;;5034019;28;20080;-71
2022/11/21 10:50:31;;;;;;;10.02;1.77;;;;;;;;;;5024486;28;20017;-70
2022/11/21 10:54:31;;;;;;;8.10;2.00;;;;;;;;;;5031502;28;20033;-70
2022/11/21 10:56:09;;;;;;;12.27;2.53;;;;;;;;;;5033708;28;20034;-72
2022/11/21 10:58:42;;;;;;;8.23;1.63;;;;;;;;;;5032600;28;20026;-71
2022/11/21 11:01:26;;;;;;;8.73;2.40;;;;;;;;;;5013768;28;20116;-69
2022/11/21 11:04:14;;;;;;;7.63;1.80;;;;;;;;;;5032835;28;20021;-69
2022/11/21 11:06:43;;;;;;;5.88;1.65;;;;;;;;;;5022304;28;20065;-69
2022/11/21 11:09:27;;;;;;;6.85;1.92;;;;;;;;;;5008475;28;20530;-69
2022/11/21 11:12:12;;;;;;;7.63;1.73;;;;;;;;;;5014385;28;20037;-69
2022/11/21 11:14:38;;;;;;;5.07;1.50;;;;;;;;;;5033395;28;20120;-68
2022/11/21 11:17:03;;;;;;;11.05;1.52;;;;;;;;;;5033564;28;20124;-69
2022/11/21 11:19:28;;;;;;;15.02;2.58;;;;;;;;;;5033480;28;20060;-78
2022/11/21 11:21:55;;;;;;;21.17;2.67;;;;;;;;;;5039538;28;20309;-78
2022/11/21 11:24:21;;;;;;;12.45;2.10;;;;;;;;;;5017000;28;20092;-77
2022/11/21 11:26:46;;;;;;;11.77;1.65;;;;;;;;;;5031976;28;20057;-76
2022/11/21 11:29:20;;;;;;;5.87;1.57;;;;;;;;;;5032698;28;20052;-79
2022/11/21 11:31:57;;;;;;;5.95;2.00;;;;;;;;;;5033748;28;20033;-76
2022/11/21 11:34:25;;;;;;;2.70;1.15;;;;;;;;;;5015935;28;20079;-74
2022/11/21 11:36:54;;;;;;;9.20;1.50;;;;;;;;;;5015133;28;20033;-73
2022/11/21 11:39:26;;;;;;;8.02;1.75;;;;;;;;;;5004619;28;20029;-75
2022/11/21 11:47:38;;;;;;;7.28;1.40;;;;;;;;;;5033519;28;20269;-75
2022/11/21 11:50:12;;;;;;;6.05;1.45;;;;;;;;;;5032544;28;20112;-75
2022/11/21 11:52:52;;;;;;;8.77;1.85;;;;;;;;;;5034949;28;20116;-69
2022/11/21 11:55:25;;;;;;;4.65;2.00;;;;;;;;;;5037286;28;20026;-77
2022/11/21 11:57:51;;;;;;;8.13;1.55;;;;;;;;;;5032296;28;20451;-70
2022/11/21 12:00:34;;;;;;;7.22;1.73;;;;;;;;;;5032771;28;20053;-70
2022/11/21 12:03:00;;;;;;;7.05;1.70;;;;;;;;;;5032967;28;20722;-71
2022/11/21 12:05:27;;;;;;;5.73;1.60;;;;;;;;;;5015169;28;20132;-71
2022/11/21 12:08:01;;;;;;;7.10;1.25;;;;;;;;;;5032204;28;20837;-71
2022/11/21 12:13:34;;;;;;;4.75;1.20;;;;;;;;;;5032809;28;20045;-77
2022/11/21 12:16:02;;;;;;;7.40;1.60;;;;;;;;;;5013857;28;20034;-72
2022/11/21 12:18:32;;;;;;;4.63;1.45;;;;;;;;;;5012956;28;20342;-71
2022/11/21 12:21:03;;;;;;;8.70;1.90;;;;;;;;;;5030881;28;20025;-72
2022/11/21 12:23:43;;;;;;;11.98;2.50;;;;;;;;;;5030765;28;20041;-72
2022/11/21 12:26:27;;;;;;;3.65;1.20;;;;;;;;;;5033237;28;20044;-73
2022/11/21 12:29:11;;;;;;;5.68;1.30;;;;;;;;;;5012819;28;20128;-69
2022/11/21 12:31:54;;;;;;;6.68;1.77;;;;;;;;;;5032738;28;20384;-72
2022/11/21 12:34:29;;;;;;;6.38;1.45;;;;;;;;;;5013514;28;20029;-70
2022/11/21 12:37:00;;;;;;;5.93;1.63;;;;;;;;;;5013874;28;20542;-70
2022/11/21 12:39:37;;;;;;;4.75;1.33;;;;;;;;;;5002664;28;20492;-70
2022/11/21 12:45:23;;;;;;;6.00;1.73;;;;;;;;;;5030211;28;20033;-70
2022/11/21 12:56:59;;;;;;;6.75;1.65;;;;;;;;;;4954135;29;20250;-71
2022/11/21 12:59:24;;;;;;;8.35;1.40;;;;;;;;;;5006323;28;20036;-70
2022/11/21 13:01:49;;;;;;;4.25;1.40;;;;;;;;;;5031363;28;20034;-70
2022/11/21 13:04:17;;;;;;;2.80;1.00;;;;;;;;;;5014069;28;20033;-71
2022/11/21 13:06:43;;;;;;;2.40;1.13;;;;;;;;;;5012349;28;20031;-72
2022/11/21 13:09:19;;;;;;;3.55;1.10;;;;;;;;;;5007486;28;20108;-71
2022/11/21 13:12:02;;;;;;;2.97;1.20;;;;;;;;;;5032112;28;20082;-71
2022/11/21 13:14:34;;;;;;;8.30;1.60;;;;;;;;;;5024414;28;20022;-70
2022/11/21 13:17:11;;;;;;;3.88;1.00;;;;;;;;;;5013270;28;20049;-71
2022/11/21 13:19:41;;;;;;;5.25;1.95;;;;;;;;;;5030400;28;20039;-70
2022/11/21 13:22:26;;;;;;;7.28;2.03;;;;;;;;;;5032072;28;20022;-70
2022/11/21 13:24:52;;;;;;;8.57;1.95;;;;;;;;;;5031800;28;20575;-71
2022/11/21 13:27:23;;;;;;;6.82;1.50;;;;;;;;;;5030861;28;20037;-70
2022/11/21 13:30:06;;;;;;;2.95;1.10;;;;;;;;;;5038412;28;20044;-69
2022/11/21 13:32:35;;;;;;;7.82;1.70;;;;;;;;;;5013060;28;20109;-69
2022/11/21 13:35:01;;;;;;;5.43;1.67;;;;;;;;;;5030966;28;20072;-68
2022/11/21 13:37:46;;;;;;;2.17;1.20;;;;;;;;;;5013776;28;20110;-68
2022/11/21 13:40:38;;;;;;;6.25;0.98;;;;;;;;;;5021957;28;20110;-69
2022/11/21 13:43:15;;;;;;;4.35;1.88;;;;;;;;;;5009097;28;20439;-70
2022/11/21 13:45:47;;;;;;;6.32;1.52;;;;;;;;;;5011701;28;20033;-77
2022/11/21 13:48:27;;;;;;;5.57;2.15;;;;;;;;;;5026138;28;20044;-72
2022/11/21 13:50:52;;;;;;;7.97;1.85;;;;;;;;;;5031340;28;20032;-72
2022/11/21 13:53:38;;;;;;;6.80;1.97;;;;;;;;;;5030502;28;20465;-71
2022/11/21 13:56:12;;;;;;;4.93;1.38;;;;;;;;;;5030977;28;20037;-71
2022/11/21 13:58:52;;;;;;;4.25;1.17;;;;;;;;;;5031473;28;20052;-71
2022/11/21 14:01:36;;;;;;;7.05;2.17;;;;;;;;;;5036180;28;20029;-70
2022/11/21 14:04:07;;;;;;;5.15;1.40;;;;;;;;;;5035872;28;20108;-71
2022/11/21 14:06:36;;;;;;;2.72;1.35;;;;;;;;;;5035292;28;20029;-70
2022/11/21 14:09:19;;;;;;;7.35;2.22;;;;;;;;;;5010359;28;20026;-71
2022/11/21 14:11:48;;;;;;;6.65;2.53;;;;;;;;;;5034382;28;20037;-70
2022/11/21 14:14:29;;;;;;;6.68;1.65;;;;;;;;;;5012346;28;20025;-71
2022/11/21 14:17:03;;;;;;;7.20;1.10;;;;;;;;;;5033599;28;20128;-71
2022/11/21 14:19:31;;;;;;;6.85;1.67;;;;;;;;;;5034884;28;20124;-72
2022/11/21 14:21:56;;;;;;;4.35;1.55;;;;;;;;;;5015946;28;20034;-76
2022/11/21 14:24:21;;;;;;;8.55;2.05;;;;;;;;;;5017168;28;20049;-72
2022/11/21 14:26:48;;;;;;;6.97;1.73;;;;;;;;;;5034781;28;20031;-73
2022/11/21 14:29:16;;;;;;;5.97;1.60;;;;;;;;;;5034665;28;20472;-72
2022/11/21 14:31:45;;;;;;;6.72;2.05;;;;;;;;;;5033764;28;20033;-72
2022/11/21 14:34:10;;;;;;;5.43;2.07;;;;;;;;;;5042398;28;20048;-71
2022/11/21 14:36:37;;;;;;;4.07;1.40;;;;;;;;;;5034911;28;20029;-72
2022/11/21 14:39:07;;;;;;;5.75;1.65;;;;;;;;;;5022036;28;20273;-68
2022/11/21 14:41:33;;;;;;;7.43;1.58;;;;;;;;;;5015481;28;20022;-76
2022/11/21 14:44:00;;;;;;;5.57;1.65;;;;;;;;;;5034287;28;20117;-77
2022/11/21 14:46:29;;;;;;;6.90;1.50;;;;;;;;;;5015776;28;20017;-77
2022/11/21 14:48:56;;;;;;;5.45;1.50;;;;;;;;;;5015493;28;20500;-76
2022/11/21 14:51:24;;;;;;;6.70;2.35;;;;;;;;;;5016275;28;20041;-76
2022/11/21 14:53:51;;;;;;;5.32;1.73;;;;;;;;;;5034605;28;20037;-77
2022/11/21 14:56:27;;;;;;;3.83;1.42;;;;;;;;;;5034602;28;20167;-70
2022/11/21 14:58:53;;;;;;;7.65;2.08;;;;;;;;;;5032988;28;20029;-71
2022/11/21 15:01:22;;;;;;;10.23;2.55;;;;;;;;;;5034108;28;20033;-68
2022/11/21 15:03:58;;;;;;;4.60;2.42;;;;;;;;;;5034321;28;20037;-69
2022/11/21 15:06:25;;;;;;;7.10;2.15;;;;;;;;;;5041703;28;20075;-68
2022/11/21 15:08:50;;;;;;;9.50;1.80;;;;;;;;;;5032187;28;20028;-68
2022/11/21 15:11:16;;;;;;;6.53;2.15;;;;;;;;;;5034027;28;20112;-68
2022/11/21 15:13:44;;;;;;;5.18;1.70;;;;;;;;;;5031961;28;20083;-69
2022/11/21 15:16:09;;;;;;;8.85;2.22;;;;;;;;;;5015463;28;20088;-68
2022/11/21 15:18:36;;;;;;;12.52;3.28;;;;;;;;;;5033159;28;20025;-68
2022/11/21 15:21:02;;;;;;;15.88;2.53;;;;;;;;;;5020222;28;20029;-70
2022/11/21 15:23:35;;;;;;;20.30;2.83;;;;;;;;;;5033954;28;20021;-68
2022/11/21 15:26:00;;;;;;;31.25;2.88;;;;;;;;;;5033674;28;20032;-69
2022/11/21 15:28:26;;;;;;;18.52;3.10;;;;;;;;;;5032135;28;20021;-68